sensor_id;sensor_type;location;lat;lon;timestamp;temperature;humidity
10306;DHT22;5198;52.382;9.020;2023-04-24T00:00:05;12.90;99.90
10306;DHT22;5198;52.382;9.020;2023-04-24T00:04:10;12.90;99.90
10306;DHT22;5198;52.382;9.020;2023-04-24T00:08:16;12.90;99.90
10306;DHT22;5198;52.382;9.020;2023-04-24T00:12:20;12.90;99.90
10306;DHT22;5198;52.382;9.020;2023-04-24T00:16:23;12.90;99.90
10306;DHT22;5198;52.382;9.020;2023-04-24T00:20:26;12.90;99.90
10306;DHT22;5198;52.382;9.020;2023-04-24T00:24:31;12.90;99.90
10306;DHT22;5198;52.382;9.020;2023-04-24T00:28:35;12.80;99.90
10306;DHT22;5198;52.382;9.020;2023-04-24T00:32:38;12.80;99.90
10306;DHT22;5198;52.382;9.020;2023-04-24T00:36:41;12.80;99.90
10306;DHT22;5198;52.382;9.020;2023-04-24T00:40:44;12.80;99.90
10306;DHT22;5198;52.382;9.020;2023-04-24T00:44:51;12.80;99.90
10306;DHT22;5198;52.382;9.020;2023-04-24T00:48:54;12.70;99.90
10306;DHT22;5198;52.382;9.020;2023-04-24T00:52:58;12.60;99.90
10306;DHT22;5198;52.382;9.020;2023-04-24T00:57:02;12.60;99.90
10306;DHT22;5198;52.382;9.020;2023-04-24T01:01:08;12.50;99.90
10306;DHT22;5198;52.382;9.020;2023-04-24T01:05:14;12.40;99.90
10306;DHT22;5198;52.382;9.020;2023-04-24T01:09:19;12.40;99.90
10306;DHT22;5198;52.382;9.020;2023-04-24T01:13:24;12.30;99.90
10306;DHT22;5198;52.382;9.020;2023-04-24T01:17:28;12.20;99.90
10306;DHT22;5198;52.382;9.020;2023-04-24T01:21:34;12.20;99.90
10306;DHT22;5198;52.382;9.020;2023-04-24T01:25:39;12.20;99.90
10306;DHT22;5198;52.382;9.020;2023-04-24T01:29:42;12.10;99.90
10306;DHT22;5198;52.382;9.020;2023-04-24T01:33:46;12.00;99.90
10306;DHT22;5198;52.382;9.020;2023-04-24T01:37:50;12.00;99.90
10306;DHT22;5198;52.382;9.020;2023-04-24T01:41:54;11.90;99.90
10306;DHT22;5198;52.382;9.020;2023-04-24T01:45:58;11.90;99.90
10306;DHT22;5198;52.382;9.020;2023-04-24T01:50:01;11.90;99.90
10306;DHT22;5198;52.382;9.020;2023-04-24T01:54:05;11.80;99.90
10306;DHT22;5198;52.382;9.020;2023-04-24T01:58:09;11.80;99.90
10306;DHT22;5198;52.382;9.020;2023-04-24T02:02:14;11.70;99.90
10306;DHT22;5198;52.382;9.020;2023-04-24T02:06:17;11.70;99.90
10306;DHT22;5198;52.382;9.020;2023-04-24T02:10:20;11.70;99.90
10306;DHT22;5198;52.382;9.020;2023-04-24T02:14:25;11.70;99.90
10306;DHT22;5198;52.382;9.020;2023-04-24T02:18:28;11.70;99.90
10306;DHT22;5198;52.382;9.020;2023-04-24T02:22:31;11.70;99.90
10306;DHT22;5198;52.382;9.020;2023-04-24T02:26:34;11.60;99.90
10306;DHT22;5198;52.382;9.020;2023-04-24T02:30:38;11.60;99.90
10306;DHT22;5198;52.382;9.020;2023-04-24T02:34:41;11.60;99.90
10306;DHT22;5198;52.382;9.020;2023-04-24T02:38:44;11.50;99.90
10306;DHT22;5198;52.382;9.020;2023-04-24T02:42:47;11.50;99.90
10306;DHT22;5198;52.382;9.020;2023-04-24T02:46:51;11.40;99.90
10306;DHT22;5198;52.382;9.020;2023-04-24T02:50:54;11.30;99.90
10306;DHT22;5198;52.382;9.020;2023-04-24T02:54:57;11.30;99.90
10306;DHT22;5198;52.382;9.020;2023-04-24T02:59:00;11.20;99.90
10306;DHT22;5198;52.382;9.020;2023-04-24T03:03:05;11.20;99.90
10306;DHT22;5198;52.382;9.020;2023-04-24T03:07:08;11.10;99.90
10306;DHT22;5198;52.382;9.020;2023-04-24T03:11:11;11.10;99.90
10306;DHT22;5198;52.382;9.020;2023-04-24T03:15:14;11.20;99.90
10306;DHT22;5198;52.382;9.020;2023-04-24T03:19:18;11.10;99.90
10306;DHT22;5198;52.382;9.020;2023-04-24T03:23:21;11.20;99.90
10306;DHT22;5198;52.382;9.020;2023-04-24T03:27:24;11.20;99.90
10306;DHT22;5198;52.382;9.020;2023-04-24T03:31:27;11.10;99.90
10306;DHT22;5198;52.382;9.020;2023-04-24T03:35:31;11.20;99.90
10306;DHT22;5198;52.382;9.020;2023-04-24T03:39:34;11.20;99.90
10306;DHT22;5198;52.382;9.020;2023-04-24T03:43:37;11.20;99.90
10306;DHT22;5198;52.382;9.020;2023-04-24T03:47:40;11.10;99.90
10306;DHT22;5198;52.382;9.020;2023-04-24T03:51:45;11.20;99.90
10306;DHT22;5198;52.382;9.020;2023-04-24T03:55:47;11.10;99.90
10306;DHT22;5198;52.382;9.020;2023-04-24T03:59:50;11.10;99.90
10306;DHT22;5198;52.382;9.020;2023-04-24T04:03:55;11.10;99.90
10306;DHT22;5198;52.382;9.020;2023-04-24T04:07:59;11.10;99.90
10306;DHT22;5198;52.382;9.020;2023-04-24T04:12:02;11.10;99.90
10306;DHT22;5198;52.382;9.020;2023-04-24T04:16:05;11.10;99.90
10306;DHT22;5198;52.382;9.020;2023-04-24T04:20:08;11.20;99.90
10306;DHT22;5198;52.382;9.020;2023-04-24T04:24:13;11.20;99.90
10306;DHT22;5198;52.382;9.020;2023-04-24T04:28:16;11.20;99.90
10306;DHT22;5198;52.382;9.020;2023-04-24T04:32:21;11.30;99.90
10306;DHT22;5198;52.382;9.020;2023-04-24T04:36:25;11.40;99.90
10306;DHT22;5198;52.382;9.020;2023-04-24T04:40:29;11.40;99.90
10306;DHT22;5198;52.382;9.020;2023-04-24T04:44:32;11.40;99.90
10306;DHT22;5198;52.382;9.020;2023-04-24T04:48:37;11.50;99.90
10306;DHT22;5198;52.382;9.020;2023-04-24T04:52:41;11.40;99.90
10306;DHT22;5198;52.382;9.020;2023-04-24T04:56:45;11.40;99.90
10306;DHT22;5198;52.382;9.020;2023-04-24T05:00:48;11.40;99.90
10306;DHT22;5198;52.382;9.020;2023-04-24T05:04:51;11.40;99.90
10306;DHT22;5198;52.382;9.020;2023-04-24T05:08:54;11.40;99.90
10306;DHT22;5198;52.382;9.020;2023-04-24T05:13:00;11.40;99.90
10306;DHT22;5198;52.382;9.020;2023-04-24T05:17:03;11.40;99.90
10306;DHT22;5198;52.382;9.020;2023-04-24T05:21:06;11.40;99.90
10306;DHT22;5198;52.382;9.020;2023-04-24T05:25:09;11.40;99.90
10306;DHT22;5198;52.382;9.020;2023-04-24T05:29:13;11.50;99.90
10306;DHT22;5198;52.382;9.020;2023-04-24T05:33:16;11.40;99.90
10306;DHT22;5198;52.382;9.020;2023-04-24T05:37:19;11.50;99.90
10306;DHT22;5198;52.382;9.020;2023-04-24T05:41:22;11.50;99.90
10306;DHT22;5198;52.382;9.020;2023-04-24T05:45:26;11.50;99.90
10306;DHT22;5198;52.382;9.020;2023-04-24T05:49:29;11.50;99.90
10306;DHT22;5198;52.382;9.020;2023-04-24T05:53:32;11.50;99.90
10306;DHT22;5198;52.382;9.020;2023-04-24T05:57:35;11.50;99.90
10306;DHT22;5198;52.382;9.020;2023-04-24T06:01:39;11.50;99.90
10306;DHT22;5198;52.382;9.020;2023-04-24T06:05:42;11.50;99.90
10306;DHT22;5198;52.382;9.020;2023-04-24T06:09:45;11.40;99.90
10306;DHT22;5198;52.382;9.020;2023-04-24T06:13:48;11.40;99.90
10306;DHT22;5198;52.382;9.020;2023-04-24T06:17:53;11.50;99.90
10306;DHT22;5198;52.382;9.020;2023-04-24T06:21:56;11.50;99.90
10306;DHT22;5198;52.382;9.020;2023-04-24T06:25:58;11.50;99.90
10306;DHT22;5198;52.382;9.020;2023-04-24T06:30:01;11.50;99.90
10306;DHT22;5198;52.382;9.020;2023-04-24T06:34:06;11.60;99.90
10306;DHT22;5198;52.382;9.020;2023-04-24T06:38:09;11.60;99.90
10306;DHT22;5198;52.382;9.020;2023-04-24T06:42:11;11.70;99.90
10306;DHT22;5198;52.382;9.020;2023-04-24T06:46:14;11.70;99.90
10306;DHT22;5198;52.382;9.020;2023-04-24T06:50:18;11.70;99.90
10306;DHT22;5198;52.382;9.020;2023-04-24T06:54:23;11.80;99.90
10306;DHT22;5198;52.382;9.020;2023-04-24T06:58:26;11.80;99.90
10306;DHT22;5198;52.382;9.020;2023-04-24T07:02:29;11.80;99.90
10306;DHT22;5198;52.382;9.020;2023-04-24T07:06:34;11.80;99.90
10306;DHT22;5198;52.382;9.020;2023-04-24T07:10:37;11.80;99.90
10306;DHT22;5198;52.382;9.020;2023-04-24T07:14:40;11.80;99.90
10306;DHT22;5198;52.382;9.020;2023-04-24T07:18:43;11.80;99.90
10306;DHT22;5198;52.382;9.020;2023-04-24T07:22:47;11.90;99.90
10306;DHT22;5198;52.382;9.020;2023-04-24T07:26:51;11.90;99.90
10306;DHT22;5198;52.382;9.020;2023-04-24T07:30:54;11.90;99.90
10306;DHT22;5198;52.382;9.020;2023-04-24T07:34:56;11.90;99.90
10306;DHT22;5198;52.382;9.020;2023-04-24T07:39:02;11.90;99.90
10306;DHT22;5198;52.382;9.020;2023-04-24T07:43:05;11.90;99.90
10306;DHT22;5198;52.382;9.020;2023-04-24T07:47:08;11.90;99.90
10306;DHT22;5198;52.382;9.020;2023-04-24T07:51:11;11.90;99.90
10306;DHT22;5198;52.382;9.020;2023-04-24T07:55:16;11.90;99.90
10306;DHT22;5198;52.382;9.020;2023-04-24T07:59:23;11.90;99.90
10306;DHT22;5198;52.382;9.020;2023-04-24T08:03:25;11.90;99.90
10306;DHT22;5198;52.382;9.020;2023-04-24T08:07:29;11.90;99.90
10306;DHT22;5198;52.382;9.020;2023-04-24T08:11:33;11.90;99.90
10306;DHT22;5198;52.382;9.020;2023-04-24T08:15:36;11.80;99.90
10306;DHT22;5198;52.382;9.020;2023-04-24T08:19:39;11.90;99.90
10306;DHT22;5198;52.382;9.020;2023-04-24T08:23:45;11.80;99.90
10306;DHT22;5198;52.382;9.020;2023-04-24T08:27:50;11.80;99.90
10306;DHT22;5198;52.382;9.020;2023-04-24T08:31:52;11.80;99.90
10306;DHT22;5198;52.382;9.020;2023-04-24T08:35:57;11.90;99.90
10306;DHT22;5198;52.382;9.020;2023-04-24T08:40:02;11.90;99.90
10306;DHT22;5198;52.382;9.020;2023-04-24T08:44:09;12.00;99.90
10306;DHT22;5198;52.382;9.020;2023-04-24T08:48:20;12.10;99.90
10306;DHT22;5198;52.382;9.020;2023-04-24T08:52:32;12.20;99.90
10306;DHT22;5198;52.382;9.020;2023-04-24T08:56:35;12.20;99.90
10306;DHT22;5198;52.382;9.020;2023-04-24T09:00:42;12.20;99.90
10306;DHT22;5198;52.382;9.020;2023-04-24T09:04:48;12.20;99.90
10306;DHT22;5198;52.382;9.020;2023-04-24T09:08:53;12.20;99.90
10306;DHT22;5198;52.382;9.020;2023-04-24T09:12:57;12.10;99.90
10306;DHT22;5198;52.382;9.020;2023-04-24T09:17:04;12.10;99.90
10306;DHT22;5198;52.382;9.020;2023-04-24T09:21:08;12.10;99.90
10306;DHT22;5198;52.382;9.020;2023-04-24T09:25:11;12.10;99.90
10306;DHT22;5198;52.382;9.020;2023-04-24T09:29:14;12.10;99.90
10306;DHT22;5198;52.382;9.020;2023-04-24T09:33:19;12.10;99.90
10306;DHT22;5198;52.382;9.020;2023-04-24T09:37:27;12.10;99.90
10306;DHT22;5198;52.382;9.020;2023-04-24T09:41:31;12.20;99.90
10306;DHT22;5198;52.382;9.020;2023-04-24T09:45:35;12.20;99.90
10306;DHT22;5198;52.382;9.020;2023-04-24T09:49:39;12.30;99.90
10306;DHT22;5198;52.382;9.020;2023-04-24T09:53:46;12.60;99.90
10306;DHT22;5198;52.382;9.020;2023-04-24T09:57:52;12.80;99.90
10306;DHT22;5198;52.382;9.020;2023-04-24T10:01:56;13.00;99.90
10306;DHT22;5198;52.382;9.020;2023-04-24T10:06:02;13.00;99.90
10306;DHT22;5198;52.382;9.020;2023-04-24T10:10:10;13.00;99.90
10306;DHT22;5198;52.382;9.020;2023-04-24T10:14:14;12.90;99.90
10306;DHT22;5198;52.382;9.020;2023-04-24T10:18:17;12.80;99.90
10306;DHT22;5198;52.382;9.020;2023-04-24T10:22:22;12.80;99.90
10306;DHT22;5198;52.382;9.020;2023-04-24T10:26:26;12.80;99.90
10306;DHT22;5198;52.382;9.020;2023-04-24T10:30:31;12.90;99.90
10306;DHT22;5198;52.382;9.020;2023-04-24T10:34:36;13.10;99.90
10306;DHT22;5198;52.382;9.020;2023-04-24T10:38:43;13.20;99.90
10306;DHT22;5198;52.382;9.020;2023-04-24T10:42:51;13.30;99.90
10306;DHT22;5198;52.382;9.020;2023-04-24T10:46:58;13.40;99.90
10306;DHT22;5198;52.382;9.020;2023-04-24T10:51:02;13.30;99.90
10306;DHT22;5198;52.382;9.020;2023-04-24T10:55:07;13.20;99.90
10306;DHT22;5198;52.382;9.020;2023-04-24T10:59:10;13.20;99.90
10306;DHT22;5198;52.382;9.020;2023-04-24T11:03:26;13.20;99.90
10306;DHT22;5198;52.382;9.020;2023-04-24T11:07:29;13.20;99.90
10306;DHT22;5198;52.382;9.020;2023-04-24T11:11:35;13.30;99.90
10306;DHT22;5198;52.382;9.020;2023-04-24T11:15:41;13.40;99.90
10306;DHT22;5198;52.382;9.020;2023-04-24T11:19:50;13.40;99.90
10306;DHT22;5198;52.382;9.020;2023-04-24T11:23:56;13.40;99.90
10306;DHT22;5198;52.382;9.020;2023-04-24T11:28:06;13.40;99.90
10306;DHT22;5198;52.382;9.020;2023-04-24T11:32:17;13.30;99.90
10306;DHT22;5198;52.382;9.020;2023-04-24T11:36:21;13.30;99.90
10306;DHT22;5198;52.382;9.020;2023-04-24T11:40:25;13.10;99.90
10306;DHT22;5198;52.382;9.020;2023-04-24T11:44:30;13.00;99.90
10306;DHT22;5198;52.382;9.020;2023-04-24T11:48:34;12.90;99.90
10306;DHT22;5198;52.382;9.020;2023-04-24T11:52:42;12.80;99.90
10306;DHT22;5198;52.382;9.020;2023-04-24T11:56:46;12.70;99.90
10306;DHT22;5198;52.382;9.020;2023-04-24T12:00:57;12.60;99.90
10306;DHT22;5198;52.382;9.020;2023-04-24T12:05:01;12.50;99.90
10306;DHT22;5198;52.382;9.020;2023-04-24T12:13:19;12.10;99.90
10306;DHT22;5198;52.382;9.020;2023-04-24T12:17:28;12.00;99.90
10306;DHT22;5198;52.382;9.020;2023-04-24T12:21:32;11.90;99.90
10306;DHT22;5198;52.382;9.020;2023-04-24T12:25:35;11.90;99.90
10306;DHT22;5198;52.382;9.020;2023-04-24T12:29:51;11.80;99.90
10306;DHT22;5198;52.382;9.020;2023-04-24T12:33:56;11.80;99.90
10306;DHT22;5198;52.382;9.020;2023-04-24T12:38:05;11.70;99.90
10306;DHT22;5198;52.382;9.020;2023-04-24T12:42:09;11.70;99.90
10306;DHT22;5198;52.382;9.020;2023-04-24T12:46:12;11.50;99.90
10306;DHT22;5198;52.382;9.020;2023-04-24T12:50:20;11.40;99.90
10306;DHT22;5198;52.382;9.020;2023-04-24T12:54:23;11.20;99.90
10306;DHT22;5198;52.382;9.020;2023-04-24T12:58:26;11.10;99.90
10306;DHT22;5198;52.382;9.020;2023-04-24T13:02:30;11.00;99.90
10306;DHT22;5198;52.382;9.020;2023-04-24T13:10:38;10.70;99.90
10306;DHT22;5198;52.382;9.020;2023-04-24T13:14:41;10.60;99.90
10306;DHT22;5198;52.382;9.020;2023-04-24T13:18:44;10.50;99.90
10306;DHT22;5198;52.382;9.020;2023-04-24T13:22:49;10.50;99.90
10306;DHT22;5198;52.382;9.020;2023-04-24T13:30:58;10.30;99.90
10306;DHT22;5198;52.382;9.020;2023-04-24T13:35:01;10.20;99.90
10306;DHT22;5198;52.382;9.020;2023-04-24T13:39:06;10.20;99.90
10306;DHT22;5198;52.382;9.020;2023-04-24T13:43:09;10.20;99.90
10306;DHT22;5198;52.382;9.020;2023-04-24T13:47:12;10.20;99.90
10306;DHT22;5198;52.382;9.020;2023-04-24T13:51:15;10.10;99.90
10306;DHT22;5198;52.382;9.020;2023-04-24T13:55:19;10.10;99.90
10306;DHT22;5198;52.382;9.020;2023-04-24T13:59:23;10.20;99.90
10306;DHT22;5198;52.382;9.020;2023-04-24T14:03:26;10.10;99.90
10306;DHT22;5198;52.382;9.020;2023-04-24T14:07:29;10.10;99.90
10306;DHT22;5198;52.382;9.020;2023-04-24T14:11:35;10.20;99.90
10306;DHT22;5198;52.382;9.020;2023-04-24T14:15:38;10.20;99.90
10306;DHT22;5198;52.382;9.020;2023-04-24T14:19:41;10.20;99.90
10306;DHT22;5198;52.382;9.020;2023-04-24T14:23:44;10.30;99.90
10306;DHT22;5198;52.382;9.020;2023-04-24T14:27:49;10.30;99.90
10306;DHT22;5198;52.382;9.020;2023-04-24T14:31:52;10.30;99.90
10306;DHT22;5198;52.382;9.020;2023-04-24T14:35:55;10.30;99.90
10306;DHT22;5198;52.382;9.020;2023-04-24T14:39:58;10.30;99.90
10306;DHT22;5198;52.382;9.020;2023-04-24T14:44:22;10.30;99.90
10306;DHT22;5198;52.382;9.020;2023-04-24T14:48:25;10.30;99.90
10306;DHT22;5198;52.382;9.020;2023-04-24T14:52:28;10.30;99.90
10306;DHT22;5198;52.382;9.020;2023-04-24T14:56:31;10.30;99.90
10306;DHT22;5198;52.382;9.020;2023-04-24T15:00:36;10.30;99.90
10306;DHT22;5198;52.382;9.020;2023-04-24T15:04:39;10.30;99.90
10306;DHT22;5198;52.382;9.020;2023-04-24T15:08:43;10.30;99.90
10306;DHT22;5198;52.382;9.020;2023-04-24T15:12:49;10.40;99.90
10306;DHT22;5198;52.382;9.020;2023-04-24T15:16:53;10.30;99.90
10306;DHT22;5198;52.382;9.020;2023-04-24T15:20:56;10.30;99.90
10306;DHT22;5198;52.382;9.020;2023-04-24T15:24:59;10.30;99.90
10306;DHT22;5198;52.382;9.020;2023-04-24T15:29:02;10.30;99.90
10306;DHT22;5198;52.382;9.020;2023-04-24T15:33:07;10.30;99.90
10306;DHT22;5198;52.382;9.020;2023-04-24T15:37:11;10.30;99.90
10306;DHT22;5198;52.382;9.020;2023-04-24T15:41:14;10.30;99.90
10306;DHT22;5198;52.382;9.020;2023-04-24T15:45:17;10.30;99.90
10306;DHT22;5198;52.382;9.020;2023-04-24T15:49:22;10.30;99.90
10306;DHT22;5198;52.382;9.020;2023-04-24T15:53:25;10.20;99.90
10306;DHT22;5198;52.382;9.020;2023-04-24T15:57:29;10.20;99.90
10306;DHT22;5198;52.382;9.020;2023-04-24T16:01:32;10.10;99.90
10306;DHT22;5198;52.382;9.020;2023-04-24T16:05:37;10.10;99.90
10306;DHT22;5198;52.382;9.020;2023-04-24T16:09:40;10.10;99.90
10306;DHT22;5198;52.382;9.020;2023-04-24T16:13:43;10.10;99.90
10306;DHT22;5198;52.382;9.020;2023-04-24T16:17:48;10.10;99.90
10306;DHT22;5198;52.382;9.020;2023-04-24T16:21:52;10.00;99.90
10306;DHT22;5198;52.382;9.020;2023-04-24T16:25:56;10.10;99.90
10306;DHT22;5198;52.382;9.020;2023-04-24T16:30:00;10.10;99.90
10306;DHT22;5198;52.382;9.020;2023-04-24T16:34:03;10.10;99.90
10306;DHT22;5198;52.382;9.020;2023-04-24T16:38:07;10.10;99.90
10306;DHT22;5198;52.382;9.020;2023-04-24T16:42:11;10.10;99.90
10306;DHT22;5198;52.382;9.020;2023-04-24T16:46:15;10.10;99.90
10306;DHT22;5198;52.382;9.020;2023-04-24T16:50:18;10.00;99.90
10306;DHT22;5198;52.382;9.020;2023-04-24T16:54:22;10.00;99.90
10306;DHT22;5198;52.382;9.020;2023-04-24T16:58:25;10.00;99.90
10306;DHT22;5198;52.382;9.020;2023-04-24T17:02:29;9.90;99.90
10306;DHT22;5198;52.382;9.020;2023-04-24T17:06:33;9.90;99.90
10306;DHT22;5198;52.382;9.020;2023-04-24T17:10:37;9.90;99.90
10306;DHT22;5198;52.382;9.020;2023-04-24T17:14:41;9.90;99.90
10306;DHT22;5198;52.382;9.020;2023-04-24T17:18:44;9.90;99.90
10306;DHT22;5198;52.382;9.020;2023-04-24T17:22:48;9.80;99.90
10306;DHT22;5198;52.382;9.020;2023-04-24T17:26:52;9.80;99.90
10306;DHT22;5198;52.382;9.020;2023-04-24T17:31:02;9.80;99.90
10306;DHT22;5198;52.382;9.020;2023-04-24T17:35:06;9.80;99.90
10306;DHT22;5198;52.382;9.020;2023-04-24T17:39:09;9.70;99.90
10306;DHT22;5198;52.382;9.020;2023-04-24T17:43:14;9.70;99.90
10306;DHT22;5198;52.382;9.020;2023-04-24T17:47:18;9.70;99.90
10306;DHT22;5198;52.382;9.020;2023-04-24T17:51:23;9.70;99.90
10306;DHT22;5198;52.382;9.020;2023-04-24T17:55:26;9.60;99.90
10306;DHT22;5198;52.382;9.020;2023-04-24T17:59:32;9.60;99.90
10306;DHT22;5198;52.382;9.020;2023-04-24T18:03:37;9.50;99.90
10306;DHT22;5198;52.382;9.020;2023-04-24T18:07:45;9.50;99.90
10306;DHT22;5198;52.382;9.020;2023-04-24T18:11:48;9.40;99.90
10306;DHT22;5198;52.382;9.020;2023-04-24T18:15:52;9.40;99.90
10306;DHT22;5198;52.382;9.020;2023-04-24T18:19:55;9.30;99.90
10306;DHT22;5198;52.382;9.020;2023-04-24T18:23:58;9.30;99.90
10306;DHT22;5198;52.382;9.020;2023-04-24T18:28:04;9.20;99.90
10306;DHT22;5198;52.382;9.020;2023-04-24T18:32:08;9.10;99.90
10306;DHT22;5198;52.382;9.020;2023-04-24T18:36:11;9.10;99.90
10306;DHT22;5198;52.382;9.020;2023-04-24T18:40:15;9.00;99.90
10306;DHT22;5198;52.382;9.020;2023-04-24T18:44:18;8.90;99.90
10306;DHT22;5198;52.382;9.020;2023-04-24T18:48:23;8.80;99.90
10306;DHT22;5198;52.382;9.020;2023-04-24T18:52:26;8.80;99.90
10306;DHT22;5198;52.382;9.020;2023-04-24T18:56:29;8.80;99.90
10306;DHT22;5198;52.382;9.020;2023-04-24T19:00:32;8.80;99.90
10306;DHT22;5198;52.382;9.020;2023-04-24T19:04:36;8.80;99.90
10306;DHT22;5198;52.382;9.020;2023-04-24T19:08:39;8.70;99.90
10306;DHT22;5198;52.382;9.020;2023-04-24T19:12:43;8.70;99.90
10306;DHT22;5198;52.382;9.020;2023-04-24T19:16:47;8.70;99.90
10306;DHT22;5198;52.382;9.020;2023-04-24T19:20:52;8.60;99.90
10306;DHT22;5198;52.382;9.020;2023-04-24T19:24:55;8.60;99.90
10306;DHT22;5198;52.382;9.020;2023-04-24T19:28:59;8.60;99.90
10306;DHT22;5198;52.382;9.020;2023-04-24T19:33:02;8.60;99.90
10306;DHT22;5198;52.382;9.020;2023-04-24T19:37:06;8.60;99.90
10306;DHT22;5198;52.382;9.020;2023-04-24T19:41:09;8.60;99.90
10306;DHT22;5198;52.382;9.020;2023-04-24T19:45:13;8.60;99.90
10306;DHT22;5198;52.382;9.020;2023-04-24T19:49:16;8.60;99.90
10306;DHT22;5198;52.382;9.020;2023-04-24T19:53:20;8.60;99.90
10306;DHT22;5198;52.382;9.020;2023-04-24T19:57:23;8.60;99.90
10306;DHT22;5198;52.382;9.020;2023-04-24T20:01:26;8.60;99.90
10306;DHT22;5198;52.382;9.020;2023-04-24T20:05:29;8.70;99.90
10306;DHT22;5198;52.382;9.020;2023-04-24T20:09:34;8.70;99.90
10306;DHT22;5198;52.382;9.020;2023-04-24T20:13:37;8.70;99.90
10306;DHT22;5198;52.382;9.020;2023-04-24T20:17:40;8.70;99.90
10306;DHT22;5198;52.382;9.020;2023-04-24T20:21:44;8.80;99.90
10306;DHT22;5198;52.382;9.020;2023-04-24T20:25:49;8.80;99.90
10306;DHT22;5198;52.382;9.020;2023-04-24T20:29:59;8.80;99.90
10306;DHT22;5198;52.382;9.020;2023-04-24T20:34:02;8.80;99.90
10306;DHT22;5198;52.382;9.020;2023-04-24T20:38:07;8.80;99.90
10306;DHT22;5198;52.382;9.020;2023-04-24T20:42:13;8.80;99.90
10306;DHT22;5198;52.382;9.020;2023-04-24T20:46:17;8.80;99.90
10306;DHT22;5198;52.382;9.020;2023-04-24T20:50:20;8.80;99.90
10306;DHT22;5198;52.382;9.020;2023-04-24T20:54:23;8.80;99.90
10306;DHT22;5198;52.382;9.020;2023-04-24T20:58:28;8.80;99.90
10306;DHT22;5198;52.382;9.020;2023-04-24T21:02:31;8.70;99.90
10306;DHT22;5198;52.382;9.020;2023-04-24T21:06:35;8.70;99.90
10306;DHT22;5198;52.382;9.020;2023-04-24T21:10:38;8.70;99.90
10306;DHT22;5198;52.382;9.020;2023-04-24T21:14:42;8.70;99.90
10306;DHT22;5198;52.382;9.020;2023-04-24T21:18:45;8.70;99.90
10306;DHT22;5198;52.382;9.020;2023-04-24T21:22:48;8.70;99.90
10306;DHT22;5198;52.382;9.020;2023-04-24T21:26:51;8.60;99.90
10306;DHT22;5198;52.382;9.020;2023-04-24T21:30:56;8.60;99.90
10306;DHT22;5198;52.382;9.020;2023-04-24T21:34:59;8.60;99.90
10306;DHT22;5198;52.382;9.020;2023-04-24T21:39:02;8.60;99.90
10306;DHT22;5198;52.382;9.020;2023-04-24T21:43:05;8.60;99.90
10306;DHT22;5198;52.382;9.020;2023-04-24T21:47:09;8.60;99.90
10306;DHT22;5198;52.382;9.020;2023-04-24T21:51:12;8.60;99.90
10306;DHT22;5198;52.382;9.020;2023-04-24T21:55:17;8.50;99.90
10306;DHT22;5198;52.382;9.020;2023-04-24T21:59:22;8.50;99.90
10306;DHT22;5198;52.382;9.020;2023-04-24T22:03:26;8.50;99.90
10306;DHT22;5198;52.382;9.020;2023-04-24T22:07:32;8.40;99.90
10306;DHT22;5198;52.382;9.020;2023-04-24T22:11:37;8.40;99.90
10306;DHT22;5198;52.382;9.020;2023-04-24T22:15:40;8.40;99.90
10306;DHT22;5198;52.382;9.020;2023-04-24T22:19:44;8.40;99.90
10306;DHT22;5198;52.382;9.020;2023-04-24T22:23:47;8.40;99.90
10306;DHT22;5198;52.382;9.020;2023-04-24T22:27:51;8.40;99.90
10306;DHT22;5198;52.382;9.020;2023-04-24T22:31:54;8.40;99.90
10306;DHT22;5198;52.382;9.020;2023-04-24T22:35:59;8.40;99.90
10306;DHT22;5198;52.382;9.020;2023-04-24T22:40:04;8.30;99.90
10306;DHT22;5198;52.382;9.020;2023-04-24T22:44:09;8.30;99.90
10306;DHT22;5198;52.382;9.020;2023-04-24T22:48:12;8.30;99.90
10306;DHT22;5198;52.382;9.020;2023-04-24T22:52:17;8.30;99.90
10306;DHT22;5198;52.382;9.020;2023-04-24T22:56:20;8.30;99.90
10306;DHT22;5198;52.382;9.020;2023-04-24T23:00:23;8.30;99.90
10306;DHT22;5198;52.382;9.020;2023-04-24T23:04:26;8.30;99.90
10306;DHT22;5198;52.382;9.020;2023-04-24T23:08:31;8.20;99.90
10306;DHT22;5198;52.382;9.020;2023-04-24T23:12:34;8.20;99.90
10306;DHT22;5198;52.382;9.020;2023-04-24T23:16:37;8.20;99.90
10306;DHT22;5198;52.382;9.020;2023-04-24T23:20:41;8.20;99.90
10306;DHT22;5198;52.382;9.020;2023-04-24T23:24:46;8.20;99.90
10306;DHT22;5198;52.382;9.020;2023-04-24T23:28:49;8.20;99.90
10306;DHT22;5198;52.382;9.020;2023-04-24T23:32:52;8.10;99.90
10306;DHT22;5198;52.382;9.020;2023-04-24T23:36:55;8.20;99.90
10306;DHT22;5198;52.382;9.020;2023-04-24T23:41:00;8.10;99.90
10306;DHT22;5198;52.382;9.020;2023-04-24T23:45:03;8.20;99.90
10306;DHT22;5198;52.382;9.020;2023-04-24T23:49:06;8.10;99.90
10306;DHT22;5198;52.382;9.020;2023-04-24T23:53:10;8.10;99.90
10306;DHT22;5198;52.382;9.020;2023-04-24T23:57:14;8.10;99.90
